createdAt,value
2018-09-20T00:00:50.416Z,25.27
2018-09-20T00:01:50.422Z,25.27
2018-09-20T00:02:50.445Z,25.17
2018-09-20T00:03:50.467Z,25.15
2018-09-20T00:04:50.785Z,25.12
2018-09-20T00:05:50.485Z,25.19
2018-09-20T00:06:50.510Z,25.19
2018-09-20T00:07:50.531Z,25.20
2018-09-20T00:08:50.541Z,25.09
2018-09-20T00:09:50.657Z,25.11
2018-09-20T00:10:50.590Z,25.09
2018-09-20T00:11:50.592Z,25.14
2018-09-20T00:12:50.624Z,25.17
2018-09-20T00:13:50.638Z,25.15
2018-09-20T00:14:50.764Z,25.11
2018-09-20T00:15:50.681Z,25.01
2018-09-20T00:16:50.699Z,25.11
2018-09-20T00:17:50.711Z,25.04
2018-09-20T00:18:50.727Z,25.00
2018-09-20T00:19:50.830Z,25.08
2018-09-20T00:20:50.754Z,25.01
2018-09-20T00:21:50.769Z,25.02
2018-09-20T00:22:50.781Z,25.11
2018-09-20T00:23:50.817Z,24.94
2018-09-20T00:24:50.932Z,24.87
2018-09-20T00:25:50.836Z,24.85
2018-09-20T00:26:50.854Z,25.01
2018-09-20T00:27:50.884Z,24.92
2018-09-20T00:28:50.890Z,24.92
2018-09-20T00:29:51.171Z,24.78
2018-09-20T00:30:50.940Z,24.74
2018-09-20T00:31:50.947Z,24.80
2018-09-20T00:32:50.967Z,24.80
2018-09-20T00:33:50.988Z,24.77
2018-09-20T00:34:51.095Z,24.78
2018-09-20T00:35:51.020Z,24.80
2018-09-20T00:36:51.048Z,24.75
2018-09-20T00:37:51.056Z,24.71
2018-09-20T00:38:51.057Z,24.55
2018-09-20T00:39:51.175Z,24.55
2018-09-20T00:40:51.109Z,24.55
2018-09-20T00:41:51.120Z,24.46
2018-09-20T00:42:51.143Z,24.48
2018-09-20T00:43:51.141Z,24.44
2018-09-20T00:44:51.318Z,24.46
2018-09-20T00:45:51.188Z,24.40
2018-09-20T00:46:51.206Z,24.39
2018-09-20T00:47:51.226Z,24.42
2018-09-20T00:48:51.232Z,24.37
2018-09-20T00:49:51.365Z,24.27
2018-09-20T00:50:51.274Z,24.32
2018-09-20T00:51:51.296Z,24.22
2018-09-20T00:52:51.315Z,24.34
2018-09-20T00:53:51.318Z,24.17
2018-09-20T00:54:51.495Z,24.29
2018-09-20T00:55:51.399Z,24.15
2018-09-20T00:56:51.393Z,24.19
2018-09-20T00:57:51.405Z,24.19
2018-09-20T00:58:51.413Z,24.33
2018-09-20T00:59:51.431Z,24.39
2018-09-20T01:00:51.540Z,24.40
2018-09-20T01:01:51.453Z,24.39
2018-09-20T01:02:51.471Z,24.32
2018-09-20T01:03:51.499Z,24.33
2018-09-20T01:04:51.506Z,24.42
2018-09-20T01:05:51.622Z,24.32
2018-09-20T01:06:51.536Z,24.27
2018-09-20T01:07:51.570Z,24.40
2018-09-20T01:08:51.577Z,24.30
2018-09-20T01:09:51.592Z,24.27
2018-09-20T01:10:51.769Z,24.27
2018-09-20T01:11:51.635Z,24.27
2018-09-20T01:12:51.657Z,24.29
2018-09-20T01:13:51.671Z,24.27
2018-09-20T01:14:51.694Z,24.32
2018-09-20T01:15:51.795Z,24.44
2018-09-20T01:16:51.714Z,24.45
2018-09-20T01:17:51.724Z,24.45
2018-09-20T01:18:51.958Z,24.45
2018-09-20T01:19:51.762Z,24.46
2018-09-20T01:20:51.890Z,24.40
2018-09-20T01:21:51.794Z,24.46
2018-09-20T01:22:51.814Z,24.42
2018-09-20T01:23:51.832Z,24.44
2018-09-20T01:24:51.858Z,24.42
2018-09-20T01:25:51.979Z,24.34
2018-09-20T01:26:51.875Z,24.42
2018-09-20T01:27:51.907Z,24.33
2018-09-20T01:28:51.917Z,24.33
2018-09-20T01:29:51.944Z,24.27
2018-09-20T01:30:52.056Z,24.19
2018-09-20T01:31:51.964Z,24.19
2018-09-20T01:32:52.000Z,24.15
2018-09-20T01:33:52.016Z,24.21
2018-09-20T01:34:52.029Z,24.18
2018-09-20T01:35:52.131Z,24.11
2018-09-20T01:36:52.061Z,24.17
2018-09-20T01:37:52.066Z,24.04
2018-09-20T01:38:52.090Z,24.03
2018-09-20T01:39:52.103Z,23.96
2018-09-20T01:40:52.234Z,23.97
2018-09-20T01:41:52.148Z,23.94
2018-09-20T01:42:52.157Z,23.92
2018-09-20T01:43:52.171Z,23.92
2018-09-20T01:44:52.194Z,23.84
2018-09-20T01:45:52.316Z,23.84
2018-09-20T01:46:52.219Z,23.81
2018-09-20T01:47:52.239Z,23.81
2018-09-20T01:48:52.247Z,23.75
2018-09-20T01:49:52.269Z,23.79
2018-09-20T01:50:52.398Z,23.72
2018-09-20T01:51:52.312Z,23.79
2018-09-20T01:52:52.320Z,23.77
2018-09-20T01:53:52.334Z,23.70
2018-09-20T01:54:52.364Z,23.72
2018-09-20T01:55:52.481Z,23.70
2018-09-20T01:56:52.386Z,23.72
2018-09-20T01:57:52.405Z,23.74
2018-09-20T01:58:52.431Z,23.74
2018-09-20T01:59:52.432Z,23.72
2018-09-20T02:00:52.452Z,23.71
2018-09-20T02:01:52.579Z,23.75
2018-09-20T02:02:52.502Z,23.70
2018-09-20T02:03:52.518Z,23.74
2018-09-20T02:04:52.526Z,23.72
2018-09-20T02:05:52.548Z,23.67
2018-09-20T02:06:52.709Z,23.72
2018-09-20T02:07:52.585Z,23.66
2018-09-20T02:08:52.596Z,23.70
2018-09-20T02:09:52.599Z,23.62
2018-09-20T02:10:52.635Z,23.75
2018-09-20T02:11:52.735Z,23.71
2018-09-20T02:12:52.655Z,23.74
2018-09-20T02:13:52.677Z,23.71
2018-09-20T02:14:52.697Z,23.72
2018-09-20T02:15:52.704Z,23.74
2018-09-20T02:16:52.879Z,23.63
2018-09-20T02:17:52.733Z,23.63
2018-09-20T02:18:52.753Z,23.53
2018-09-20T02:19:52.770Z,23.57
2018-09-20T02:20:52.795Z,23.60
2018-09-20T02:21:52.909Z,23.62
2018-09-20T02:22:52.824Z,23.60
2018-09-20T02:23:52.850Z,23.63
2018-09-20T02:24:52.863Z,23.63
2018-09-20T02:25:52.877Z,23.67
2018-09-20T02:26:52.995Z,23.71
2018-09-20T02:27:52.901Z,23.72
2018-09-20T02:28:52.929Z,23.71
2018-09-20T02:29:52.947Z,23.70
2018-09-20T02:30:52.948Z,23.74
2018-09-20T02:31:53.117Z,23.66
2018-09-20T02:32:53.001Z,23.78
2018-09-20T02:33:53.011Z,23.75
2018-09-20T02:34:53.013Z,23.67
2018-09-20T02:35:53.038Z,23.70
2018-09-20T02:36:53.154Z,23.71
2018-09-20T02:37:53.067Z,23.70
2018-09-20T02:38:53.088Z,23.71
2018-09-20T02:39:53.104Z,23.78
2018-09-20T02:40:53.128Z,23.78
2018-09-20T02:41:53.249Z,23.79
2018-09-20T02:42:53.151Z,23.71
2018-09-20T02:43:53.172Z,23.72
2018-09-20T02:44:53.194Z,23.79
2018-09-20T02:45:53.213Z,23.77
2018-09-20T02:46:53.325Z,23.71
2018-09-20T02:47:53.249Z,23.74
2018-09-20T02:48:53.259Z,23.75
2018-09-20T02:49:53.274Z,23.60
2018-09-20T02:50:53.301Z,23.60
2018-09-20T02:51:53.453Z,23.62
2018-09-20T02:52:53.317Z,23.55
2018-09-20T02:53:53.335Z,23.40
2018-09-20T02:54:53.345Z,23.25
2018-09-20T02:55:53.370Z,23.28
2018-09-20T02:56:53.384Z,23.24
2018-09-20T02:57:53.514Z,23.16
2018-09-20T02:58:53.435Z,23.10
2018-09-20T02:59:53.433Z,23.01
2018-09-20T03:00:53.449Z,22.96
2018-09-20T03:01:53.461Z,22.94
2018-09-20T03:02:53.630Z,22.91
2018-09-20T03:03:53.517Z,22.89
2018-09-20T03:04:53.522Z,22.82
2018-09-20T03:05:53.540Z,22.81
2018-09-20T03:06:53.565Z,22.75
2018-09-20T03:07:53.718Z,22.67
2018-09-20T03:08:53.588Z,22.63
2018-09-20T03:09:53.597Z,22.66
2018-09-20T03:10:53.611Z,22.63
2018-09-20T03:11:53.643Z,22.63
2018-09-20T03:12:53.898Z,22.59
2018-09-20T03:13:53.671Z,22.66
2018-09-20T03:14:53.693Z,22.59
2018-09-20T03:15:53.703Z,22.61
2018-09-20T03:16:53.704Z,22.60
2018-09-20T03:17:53.983Z,22.67
2018-09-20T03:18:53.744Z,22.69
2018-09-20T03:19:53.771Z,22.66
2018-09-20T03:20:53.780Z,22.70
2018-09-20T03:21:53.809Z,22.69
2018-09-20T03:22:53.921Z,22.64
2018-09-20T03:23:53.825Z,22.60
2018-09-20T03:24:53.837Z,22.60
2018-09-20T03:25:53.867Z,22.69
2018-09-20T03:26:54.403Z,22.63
2018-09-20T03:27:54.002Z,22.57
2018-09-20T03:28:53.926Z,22.54
2018-09-20T03:29:53.938Z,22.59
2018-09-20T03:30:54.021Z,22.54
2018-09-20T03:31:53.969Z,22.45
2018-09-20T03:32:54.076Z,22.48
2018-09-20T03:33:53.985Z,22.36
2018-09-20T03:34:54.002Z,22.20
2018-09-20T03:35:54.021Z,22.14
2018-09-20T03:36:54.044Z,21.99
2018-09-20T03:37:54.201Z,21.96
2018-09-20T03:38:54.063Z,21.97
2018-09-20T03:39:54.085Z,21.89
2018-09-20T03:40:54.099Z,21.89
2018-09-20T03:41:54.128Z,21.78
2018-09-20T03:42:54.235Z,21.83
2018-09-20T03:43:54.156Z,21.83
2018-09-20T03:44:54.167Z,21.74
2018-09-20T03:45:54.186Z,21.77
2018-09-20T03:46:54.204Z,21.71
2018-09-20T03:47:54.360Z,21.76
2018-09-20T03:48:54.241Z,21.76
2018-09-20T03:49:54.239Z,21.78
2018-09-20T03:50:54.249Z,21.61
2018-09-20T03:51:54.283Z,21.37
2018-09-20T03:52:54.404Z,21.27
2018-09-20T03:53:54.313Z,21.13
2018-09-20T03:54:54.326Z,21.08
2018-09-20T03:55:54.343Z,21.00
2018-09-20T03:56:54.362Z,21.01
2018-09-20T03:57:54.515Z,20.83
2018-09-20T03:58:54.395Z,20.78
2018-09-20T03:59:54.403Z,20.64
2018-09-20T04:00:54.414Z,20.41
2018-09-20T04:01:54.426Z,20.37
2018-09-20T14:29:53.285Z,22.88
2018-09-20T14:29:54.422Z,22.97
2018-09-20T14:30:54.537Z,22.91
2018-09-20T14:31:54.463Z,22.94
2018-09-20T14:32:54.462Z,22.86
2018-09-20T14:33:54.482Z,22.81
2018-09-20T14:34:54.514Z,22.71
2018-09-20T14:35:54.628Z,22.60
2018-09-20T14:36:54.544Z,22.52
2018-09-20T14:37:54.553Z,22.45
2018-09-20T14:38:54.563Z,22.39
2018-09-20T14:39:54.596Z,22.39
2018-09-20T14:40:54.729Z,22.24
2018-09-20T14:41:54.614Z,22.20
2018-09-20T14:42:54.642Z,22.05
2018-09-20T14:43:54.655Z,21.86
2018-09-20T14:44:54.675Z,21.89
2018-09-20T14:45:54.783Z,21.73
2018-09-20T14:46:54.710Z,21.68
2018-09-20T14:47:55.256Z,21.67
2018-09-20T14:48:54.733Z,21.55
2018-09-20T14:49:54.760Z,21.45
2018-09-20T14:50:54.859Z,21.51
2018-09-20T14:51:54.986Z,21.38
2018-09-20T14:52:54.792Z,21.38
2018-09-20T14:53:54.822Z,21.38
2018-09-20T14:54:54.825Z,21.48
2018-09-20T14:55:55.002Z,21.33
2018-09-20T14:56:55.070Z,21.37
2018-09-20T14:57:54.877Z,21.40
2018-09-20T14:58:54.887Z,21.41
2018-09-20T14:59:54.918Z,21.43
2018-09-20T15:00:55.080Z,21.49
2018-09-20T15:01:54.937Z,21.49
2018-09-20T15:02:54.960Z,21.53
2018-09-20T15:03:54.964Z,21.58
2018-09-20T15:04:54.996Z,21.59
2018-09-20T15:05:55.306Z,21.56
2018-09-20T15:06:55.231Z,21.62
2018-09-20T15:07:55.441Z,21.64
2018-09-20T15:08:55.256Z,21.64
2018-09-20T15:09:55.053Z,21.70
2018-09-20T15:10:55.076Z,21.66
2018-09-20T15:11:55.238Z,21.61
2018-09-20T15:12:55.113Z,21.71
2018-09-20T15:13:55.133Z,21.71
2018-09-20T15:14:55.176Z,21.56
2018-09-20T15:15:55.153Z,21.61
2018-09-20T15:16:55.275Z,21.61
2018-09-20T15:17:55.388Z,21.67
2018-09-20T15:18:55.210Z,21.77
2018-09-20T15:19:55.226Z,21.74
2018-09-20T15:20:55.231Z,21.85
2018-09-20T15:21:55.787Z,21.78
2018-09-20T15:22:55.365Z,21.89
2018-09-20T15:23:55.292Z,21.89
2018-09-20T15:24:55.298Z,21.90
2018-09-20T15:25:55.312Z,21.85
2018-09-20T15:26:55.528Z,21.78
2018-09-20T15:27:55.445Z,21.78
2018-09-20T15:28:55.374Z,21.71
2018-09-20T15:29:55.375Z,21.77
2018-09-20T15:30:55.403Z,21.73
2018-09-20T15:31:55.417Z,21.78
2018-09-20T15:32:56.263Z,21.76
2018-09-20T15:33:55.439Z,21.70
2018-09-20T15:34:55.454Z,21.71
2018-09-20T15:35:55.475Z,21.70
2018-09-20T15:36:55.503Z,21.78
2018-09-20T15:37:55.599Z,21.67
2018-09-20T15:38:55.526Z,21.80
2018-09-20T15:39:55.579Z,21.76
2018-09-20T15:40:55.566Z,21.78
2018-09-20T15:41:55.567Z,21.82
2018-09-20T15:42:55.682Z,21.92
2018-09-20T15:43:55.602Z,21.93
2018-09-20T15:44:55.629Z,21.89
2018-09-20T15:45:55.640Z,22.00
2018-09-20T15:46:55.660Z,22.02
2018-09-20T15:47:55.762Z,22.11
2018-09-20T15:48:55.680Z,22.22
2018-09-20T15:49:55.710Z,22.27
2018-09-20T15:50:55.723Z,22.29
2018-09-20T15:51:55.733Z,22.26
2018-09-20T15:52:55.886Z,22.38
2018-09-20T15:53:55.773Z,22.39
2018-09-20T15:54:55.776Z,22.36
2018-09-20T15:55:55.802Z,22.48
2018-09-20T15:56:55.826Z,22.49
2018-09-20T15:57:55.926Z,22.59
2018-09-20T15:58:55.853Z,22.54
2018-09-20T15:59:56.065Z,22.52
2018-09-20T16:00:55.872Z,22.55
2018-09-20T16:01:55.905Z,22.61
2018-09-20T16:02:56.020Z,22.73
2018-09-20T16:03:55.938Z,22.66
2018-09-20T16:04:55.959Z,22.64
2018-09-20T16:05:56.066Z,22.63
2018-09-20T16:06:56.192Z,22.70
2018-09-20T16:07:56.106Z,22.59
2018-09-20T16:08:56.019Z,22.52
2018-09-20T16:09:56.562Z,22.54
2018-09-20T16:10:56.593Z,22.46
2018-09-20T16:11:56.063Z,22.36
2018-09-20T16:12:56.186Z,22.24
2018-09-20T16:13:56.107Z,22.23
2018-09-20T16:14:56.126Z,22.16
2018-09-20T16:15:56.542Z,22.15
2018-09-20T16:16:56.156Z,22.05
2018-09-20T16:17:56.257Z,21.99
2018-09-20T16:18:56.185Z,21.97
2018-09-20T16:19:56.209Z,21.86
2018-09-20T16:20:56.210Z,21.78
2018-09-20T16:21:56.233Z,21.83
2018-09-20T16:22:56.234Z,21.85
2018-09-20T16:23:56.368Z,21.78
2018-09-20T16:24:56.285Z,21.83
2018-09-20T16:25:56.285Z,21.85
2018-09-20T16:26:56.312Z,21.83
2018-09-20T16:27:56.334Z,21.78
2018-09-20T16:28:56.441Z,21.80
2018-09-20T16:29:56.346Z,21.85
2018-09-20T16:30:56.584Z,21.77
2018-09-20T16:31:56.384Z,21.86
2018-09-20T16:32:56.600Z,21.89
2018-09-20T16:33:56.518Z,21.92
2018-09-20T16:34:56.430Z,21.85
2018-09-20T16:35:56.456Z,21.97
2018-09-20T16:36:56.481Z,21.90
2018-09-20T16:37:56.488Z,21.97
2018-09-20T16:38:56.802Z,22.02
2018-09-20T16:39:56.504Z,21.96
2018-09-20T16:40:56.527Z,21.99
2018-09-20T16:41:56.753Z,22.04
2018-09-20T16:42:56.553Z,22.02
2018-09-20T16:43:56.682Z,21.99
2018-09-20T16:44:56.590Z,22.02
2018-09-20T16:45:56.603Z,22.16
2018-09-20T16:46:56.638Z,22.04
2018-09-20T16:47:56.840Z,22.12
2018-09-20T16:48:56.932Z,22.18
2018-09-20T16:49:56.685Z,22.09
2018-09-20T16:50:56.694Z,22.02
2018-09-20T16:51:56.703Z,22.12
2018-09-20T16:52:56.763Z,22.16
2018-09-20T16:53:56.844Z,22.12
2018-09-20T16:54:56.754Z,22.08
2018-09-20T16:55:56.767Z,21.96
2018-09-20T16:56:56.792Z,22.05
2018-09-20T16:57:56.796Z,21.94
2018-09-20T16:58:56.912Z,21.94
2018-09-20T16:59:56.833Z,22.04
2018-09-20T17:00:56.842Z,21.82
2018-09-20T17:01:56.874Z,21.76
2018-09-20T17:02:56.886Z,21.77
2018-09-20T17:03:57.005Z,21.70
2018-09-20T17:04:57.324Z,21.66
2018-09-20T17:05:56.923Z,21.58
2018-09-20T17:06:56.949Z,21.53
2018-09-20T17:07:56.968Z,21.41
2018-09-20T17:08:57.084Z,21.41
2018-09-20T17:09:57.001Z,21.37
2018-09-20T17:10:57.018Z,21.43
2018-09-20T17:11:57.038Z,21.30
2018-09-20T17:12:57.034Z,21.41
2018-09-20T17:13:57.210Z,21.34
2018-09-20T17:14:57.217Z,21.30
2018-09-20T17:15:57.080Z,21.25
2018-09-20T17:16:57.110Z,21.23
2018-09-20T17:17:57.128Z,21.23
2018-09-20T17:18:57.232Z,21.15
2018-09-20T17:19:57.425Z,21.15
2018-09-20T17:20:57.174Z,21.16
2018-09-20T17:21:57.194Z,21.16
2018-09-20T17:22:57.193Z,21.08
2018-09-20T17:23:57.207Z,21.11
2018-09-20T17:24:57.327Z,21.12
2018-09-20T17:25:57.242Z,21.11
2018-09-20T17:26:57.269Z,21.15
2018-09-20T17:27:57.284Z,21.08
2018-09-20T17:28:57.292Z,21.15
2018-09-20T17:29:57.425Z,21.19
2018-09-20T17:30:57.317Z,21.23
2018-09-20T17:31:57.332Z,21.33
2018-09-20T17:32:57.351Z,21.36
2018-09-20T17:33:57.370Z,21.38
2018-09-20T17:34:57.486Z,21.51
2018-09-20T17:35:57.407Z,21.56
2018-09-20T17:36:57.417Z,21.62
2018-09-20T17:37:57.437Z,21.68
2018-09-20T17:38:57.864Z,21.77
2018-09-20T17:39:57.582Z,21.86
2018-09-20T17:40:57.496Z,21.94
2018-09-20T17:41:57.499Z,22.20
2018-09-20T17:42:57.523Z,22.26
2018-09-20T17:43:57.533Z,22.39
2018-09-20T17:44:57.652Z,22.54
2018-09-20T17:45:57.574Z,22.57
2018-09-20T17:46:57.588Z,22.66
2018-09-20T17:47:57.610Z,22.78
2018-09-20T17:48:57.626Z,22.91
2018-09-20T17:49:57.749Z,23.00
2018-09-20T17:50:57.662Z,22.99
2018-09-20T17:51:57.676Z,23.14
2018-09-20T17:52:57.693Z,23.03
2018-09-20T17:53:57.716Z,22.99
2018-09-20T17:54:57.836Z,23.10
2018-09-20T17:55:57.745Z,23.10
2018-09-20T17:56:57.766Z,23.09
2018-09-20T17:57:57.773Z,23.00
2018-09-20T17:58:57.801Z,23.04
2018-09-20T17:59:57.919Z,22.91
2018-09-20T18:00:57.837Z,23.06
2018-09-20T18:01:57.853Z,23.06
2018-09-20T18:02:57.910Z,22.92
2018-09-20T18:03:57.877Z,22.99
2018-09-20T18:04:58.022Z,23.06
2018-09-20T18:05:57.907Z,22.94
2018-09-20T18:06:57.936Z,22.89
2018-09-20T18:07:57.953Z,22.82
2018-09-20T18:08:58.177Z,22.86
2018-09-20T18:09:58.084Z,22.91
2018-09-20T18:10:58.004Z,22.78
2018-09-20T18:11:58.020Z,22.69
2018-09-20T18:12:58.036Z,22.71
2018-09-20T18:13:58.064Z,22.64
2018-09-20T18:14:58.272Z,22.70
2018-09-20T18:15:58.087Z,22.69
2018-09-20T18:16:58.099Z,22.69
2018-09-20T18:17:58.381Z,22.81
2018-09-20T18:18:58.145Z,22.85
2018-09-20T18:19:58.250Z,22.88
2018-09-20T18:20:58.174Z,22.86
2018-09-20T18:21:58.180Z,22.97
2018-09-20T18:22:58.209Z,23.03
2018-09-20T18:23:58.234Z,23.00
2018-09-20T18:24:58.237Z,23.07
2018-09-20T18:25:58.361Z,23.12
2018-09-20T18:26:58.281Z,23.10
2018-09-20T18:27:58.293Z,23.12
2018-09-20T18:28:58.301Z,23.14
2018-09-20T18:29:58.319Z,23.10
2018-09-20T18:30:58.449Z,23.15
2018-09-20T18:31:58.357Z,23.16
2018-09-20T18:32:58.375Z,23.19
2018-09-20T18:33:58.384Z,23.19
2018-09-20T18:34:58.407Z,23.24
2018-09-20T18:35:58.584Z,23.24
2018-09-20T18:36:58.453Z,23.24
2018-09-20T18:37:58.464Z,23.21
2018-09-20T18:38:58.474Z,23.34
2018-09-20T18:39:58.504Z,23.26
2018-09-20T18:40:58.627Z,23.28
2018-09-20T18:41:58.555Z,23.38
2018-09-20T18:42:58.544Z,23.47
2018-09-20T18:43:58.574Z,23.42
2018-09-20T18:44:58.590Z,23.40
2018-09-20T18:45:58.695Z,23.37
2018-09-20T18:46:58.621Z,23.38
2018-09-20T18:47:58.640Z,23.29
2018-09-20T18:48:58.657Z,23.26
2018-09-20T18:49:58.674Z,23.25
2018-09-20T18:50:58.792Z,23.14
2018-09-20T18:51:58.709Z,23.14
2018-09-20T18:52:58.720Z,23.06
2018-09-20T18:53:58.736Z,23.16
2018-09-20T18:54:58.751Z,23.07
2018-09-20T18:55:58.927Z,23.14
2018-09-20T18:56:58.791Z,22.97
2018-09-20T18:57:58.815Z,23.03
2018-09-20T18:58:58.816Z,23.06
2018-09-20T18:59:58.839Z,23.10
2018-09-20T19:00:58.973Z,22.96
2018-09-20T19:01:58.879Z,22.97
2018-09-20T19:02:58.902Z,22.94
2018-09-20T19:03:58.920Z,22.94
2018-09-20T19:04:58.927Z,22.94
2018-09-20T19:05:59.039Z,22.88
2018-09-20T19:06:58.958Z,22.89
2018-09-20T19:07:59.188Z,22.89
2018-09-20T19:08:58.992Z,22.81
2018-09-20T19:09:59.007Z,22.96
2018-09-20T19:10:59.127Z,22.94
2018-09-20T19:11:59.051Z,22.91
2018-09-20T19:12:59.112Z,22.86
2018-09-20T19:13:59.081Z,22.85
2018-09-20T19:14:59.085Z,22.86
2018-09-20T19:15:59.213Z,22.81
2018-09-20T19:16:59.128Z,22.85
2018-09-20T19:17:59.147Z,22.97
2018-09-20T19:18:59.171Z,23.00
2018-09-20T19:19:59.172Z,22.94
2018-09-20T19:20:59.499Z,23.03
2018-09-20T19:21:59.212Z,23.00
2018-09-20T19:22:59.236Z,22.99
2018-09-20T19:23:59.247Z,23.06
2018-09-20T19:24:59.254Z,23.01
2018-09-20T19:25:59.381Z,22.96
2018-09-20T19:26:59.284Z,23.06
2018-09-20T19:27:59.509Z,23.06
2018-09-20T19:28:59.330Z,22.97
2018-09-20T19:29:59.358Z,23.07
2018-09-20T19:30:59.503Z,23.06
2018-09-20T19:31:59.391Z,22.99
2018-09-20T19:32:59.445Z,23.01
2018-09-20T19:33:59.470Z,22.96
2018-09-20T19:34:59.483Z,22.91
2018-09-20T19:35:59.642Z,22.85
2018-09-20T19:36:59.508Z,22.84
2018-09-20T19:37:59.534Z,22.75
2018-09-20T19:38:59.548Z,22.69
2018-09-20T19:39:59.573Z,22.60
2018-09-20T19:40:59.622Z,22.54
2018-09-20T19:41:59.750Z,22.57
2018-09-20T19:42:59.560Z,22.54
2018-09-20T19:43:59.574Z,22.49
2018-09-20T19:44:59.583Z,22.49
2018-09-20T19:45:59.713Z,22.51
2018-09-20T19:46:59.620Z,22.46
2018-09-20T19:47:59.838Z,22.39
2018-09-20T19:49:00.066Z,22.39
2018-09-20T19:49:59.680Z,22.39
2018-09-20T19:50:59.801Z,22.23
2018-09-20T19:51:59.714Z,22.34
2018-09-20T19:52:59.718Z,22.24
2018-09-20T19:53:59.743Z,22.22
2018-09-20T19:54:59.768Z,22.24
2018-09-20T19:55:59.915Z,22.24
2018-09-20T19:56:59.783Z,22.24
2018-09-20T19:57:59.811Z,22.23
2018-09-20T19:58:59.821Z,22.29
2018-09-20T19:59:59.835Z,22.18
2018-09-20T20:00:59.946Z,22.18
2018-09-20T20:01:59.859Z,22.24
2018-09-20T20:02:59.895Z,22.14
2018-09-20T20:03:59.893Z,22.20
2018-09-20T20:04:59.910Z,22.18
2018-09-20T20:06:00.027Z,22.15
2018-09-20T20:06:59.940Z,22.11
2018-09-20T20:07:59.960Z,22.12
2018-09-20T20:08:59.975Z,22.15
2018-09-20T20:09:59.998Z,22.11
2018-09-20T20:11:00.106Z,22.14
2018-09-20T20:12:00.021Z,22.08
2018-09-20T20:13:00.039Z,22.08
2018-09-20T20:14:00.055Z,22.11
2018-09-20T20:15:00.687Z,22.16
2018-09-20T20:16:00.186Z,22.16
2018-09-20T20:17:00.110Z,22.14
2018-09-20T20:18:00.134Z,22.18
2018-09-20T20:19:00.134Z,22.14
2018-09-20T20:20:00.146Z,22.24
2018-09-20T20:21:01.075Z,22.18
2018-09-20T20:22:00.182Z,22.26
2018-09-20T20:23:00.196Z,22.26
2018-09-20T20:24:00.734Z,22.30
2018-09-20T20:25:00.236Z,22.18
2018-09-20T20:26:00.396Z,22.22
2018-09-20T20:27:00.274Z,22.27
2018-09-20T20:28:00.687Z,22.33
2018-09-20T20:29:00.289Z,22.33
2018-09-20T20:30:00.311Z,22.23
2018-09-20T20:31:00.420Z,22.27
2018-09-20T20:32:00.335Z,22.39
2018-09-20T20:33:00.357Z,22.36
2018-09-20T20:34:00.386Z,22.44
2018-09-20T20:35:00.389Z,22.36
2018-09-20T20:36:00.511Z,22.42
2018-09-20T20:37:00.415Z,22.34
2018-09-20T20:38:00.435Z,22.31
2018-09-20T20:39:00.446Z,22.26
2018-09-20T20:40:00.462Z,22.20
2018-09-20T20:41:00.594Z,22.27
2018-09-20T20:42:00.497Z,22.20
2018-09-20T20:43:00.524Z,22.20
2018-09-20T20:44:00.522Z,22.18
2018-09-20T20:45:00.563Z,22.16
2018-09-20T20:46:00.671Z,22.12
2018-09-20T20:47:00.583Z,22.04
2018-09-20T20:48:00.596Z,21.97
2018-09-20T20:49:00.614Z,21.99
2018-09-20T20:50:00.651Z,22.04
2018-09-20T20:51:00.750Z,21.97
2018-09-20T20:52:00.652Z,22.05
2018-09-20T20:53:00.707Z,21.94
2018-09-20T20:54:00.684Z,21.94
2018-09-20T20:55:00.701Z,21.93
2018-09-20T20:56:00.819Z,21.96
2018-09-20T20:57:00.746Z,22.04
2018-09-20T20:58:00.749Z,21.96
2018-09-20T20:59:00.773Z,21.89
2018-09-20T21:00:00.788Z,21.92
2018-09-20T21:01:00.900Z,21.99
2018-09-20T21:02:00.830Z,21.90
2018-09-20T21:03:00.838Z,21.94
2018-09-20T21:04:00.855Z,21.89
2018-09-20T21:05:01.070Z,21.89
2018-09-20T21:06:00.982Z,21.80
2018-09-20T21:07:00.890Z,21.85
2018-09-20T21:08:00.918Z,21.90
2018-09-20T21:09:00.964Z,21.82
2018-09-20T21:10:00.952Z,21.82
2018-09-20T21:11:01.067Z,21.77
2018-09-20T21:12:00.981Z,21.76
2018-09-20T21:13:01.189Z,21.71
2018-09-20T21:14:01.011Z,21.66
2018-09-20T21:15:01.024Z,21.80
2018-09-20T21:16:01.368Z,21.73
2018-09-20T21:17:01.068Z,21.73
2018-09-20T21:18:01.063Z,21.70
2018-09-20T21:19:01.091Z,21.77
2018-09-20T21:20:01.308Z,21.76
2018-09-20T21:21:01.122Z,21.66
2018-09-20T21:22:01.232Z,21.67
2018-09-20T21:23:01.322Z,21.68
2018-09-20T21:24:01.154Z,21.58
2018-09-20T21:25:01.171Z,21.59
2018-09-20T21:26:01.187Z,21.53
2018-09-20T21:27:01.213Z,21.62
2018-09-20T21:28:01.327Z,21.61
2018-09-20T21:29:01.240Z,21.49
2018-09-20T21:30:01.255Z,21.56
2018-09-20T21:31:01.265Z,21.45
2018-09-20T21:32:01.291Z,21.45
2018-09-20T21:33:01.412Z,21.46
2018-09-20T21:34:01.324Z,21.40
2018-09-20T21:35:01.341Z,21.30
2018-09-20T21:36:01.354Z,21.37
2018-09-20T21:37:01.367Z,21.21
2018-09-20T21:38:01.485Z,21.23
2018-09-20T21:39:01.405Z,21.19
2018-09-20T21:40:01.427Z,21.18
2018-09-20T21:41:01.419Z,21.15
2018-09-20T21:42:01.442Z,21.11
2018-09-20T21:43:01.595Z,20.98
2018-09-20T21:44:01.484Z,21.08
2018-09-20T21:45:01.485Z,21.04
2018-09-20T21:46:01.501Z,21.12
2018-09-20T21:47:01.506Z,21.09
2018-09-20T21:48:01.622Z,21.15
2018-09-20T21:49:01.555Z,21.11
2018-09-20T21:50:01.573Z,21.11
2018-09-20T21:51:01.592Z,21.11
2018-09-20T21:52:01.784Z,21.21
2018-09-20T21:53:01.693Z,21.09
2018-09-20T21:54:01.629Z,21.09
2018-09-20T21:55:01.623Z,20.98
2018-09-20T21:56:01.711Z,21.04
2018-09-20T21:57:02.071Z,21.04
2018-09-20T21:58:01.888Z,21.00
2018-09-20T21:59:01.706Z,20.98
2018-09-20T22:00:01.719Z,21.01
2018-09-20T22:01:01.733Z,20.94
2018-09-20T22:02:01.734Z,21.00
2018-09-20T22:03:01.866Z,21.00
2018-09-20T22:04:01.782Z,21.01
2018-09-20T22:05:01.791Z,21.00
2018-09-20T22:06:01.806Z,21.00
2018-09-20T22:07:01.812Z,20.98
2018-09-20T22:08:01.937Z,21.08
2018-09-20T22:09:01.843Z,21.15
2018-09-20T22:10:01.870Z,21.09
2018-09-20T22:11:01.872Z,21.22
2018-09-20T22:12:02.102Z,21.22
2018-09-20T22:13:02.012Z,21.16
2018-09-20T22:14:02.535Z,21.19
2018-09-20T22:15:01.946Z,21.15
2018-09-20T22:16:01.955Z,21.12
2018-09-20T22:17:01.965Z,21.15
2018-09-20T22:18:02.128Z,21.15
2018-09-20T22:19:01.993Z,21.25
2018-09-20T22:20:02.018Z,21.15
2018-09-20T22:21:02.035Z,21.13
2018-09-20T22:22:02.055Z,21.30
2018-09-20T22:23:02.153Z,21.27
2018-09-20T22:24:02.061Z,21.30
2018-09-20T22:25:02.089Z,21.30
2018-09-20T22:26:02.115Z,21.23
2018-09-20T22:27:02.111Z,21.30
2018-09-20T22:28:02.895Z,21.27
2018-09-20T22:29:02.136Z,21.13
2018-09-20T22:30:02.161Z,21.15
2018-09-20T22:31:02.176Z,21.19
2018-09-20T22:32:02.198Z,21.21
2018-09-20T22:33:02.315Z,21.16
2018-09-20T22:34:02.233Z,21.09
2018-09-20T22:35:02.243Z,21.16
2018-09-20T22:36:02.244Z,21.18
2018-09-20T22:37:02.307Z,21.11
2018-09-20T22:38:02.440Z,21.15
2018-09-20T22:39:02.308Z,21.25
2018-09-20T22:40:02.321Z,21.22
2018-09-20T22:41:02.326Z,21.22
2018-09-20T22:42:02.356Z,21.31
2018-09-20T22:43:02.661Z,21.28
2018-09-20T22:44:02.406Z,21.27
2018-09-20T22:45:02.398Z,21.33
2018-09-20T22:46:02.403Z,21.25
2018-09-20T22:47:02.426Z,21.30
2018-09-20T22:48:02.542Z,21.22
2018-09-20T22:49:02.447Z,21.30
2018-09-20T22:50:02.478Z,21.40
2018-09-20T22:51:02.697Z,21.34
2018-09-20T22:52:02.702Z,21.34
2018-09-20T22:53:03.478Z,21.34
2018-09-20T22:54:02.528Z,21.38
2018-09-20T22:55:02.747Z,21.48
2018-09-20T22:56:02.754Z,21.38
2018-09-20T22:57:02.568Z,21.48
2018-09-20T22:58:02.586Z,21.48
2018-09-20T22:59:02.761Z,21.40
2018-09-20T23:00:02.626Z,21.48
2018-09-20T23:01:02.639Z,21.43
2018-09-20T23:02:02.658Z,21.45
2018-09-20T23:03:02.658Z,21.38
2018-09-20T23:04:02.779Z,21.37
2018-09-20T23:05:02.701Z,21.38
2018-09-20T23:06:02.718Z,21.38
2018-09-20T23:07:02.722Z,21.30
2018-09-20T23:08:02.736Z,21.37
2018-09-20T23:09:02.976Z,21.33
2018-09-20T23:10:02.975Z,21.36
2018-09-20T23:11:02.825Z,21.33
2018-09-20T23:12:02.810Z,21.30
2018-09-20T23:13:03.029Z,21.34
2018-09-20T23:14:02.945Z,21.31
2018-09-20T23:15:03.096Z,21.28
2018-09-20T23:16:02.869Z,21.30
2018-09-20T23:17:02.872Z,21.31
2018-09-20T23:18:02.899Z,21.16
2018-09-20T23:19:03.104Z,21.15